Time;durP1;ratioP1;P1;durP2;ratioP2;P2;SDS_P1;SDS_P2;PMS_P1;PMS_P2;Temp;Humidity;BMP_temperature;BMP_pressure;BME280_temperature;BME280_humidity;BME280_pressure;Samples;Min_cycle;Max_cycle;Signal;HPM_P1;HPM_P2
2023/08/25 00:00:41;;;;;;;36.72;32.88;;;;;;;;;;5015454;28;20045;-78
2023/08/25 00:03:07;;;;;;;35.15;31.38;;;;;;;;;;5017347;28;20110;-78
2023/08/25 00:05:37;;;;;;;38.15;34.33;;;;;;;;;;5017717;28;20143;-78
2023/08/25 00:08:03;;;;;;;37.55;33.72;;;;;;;;;;5015685;28;20493;-78
2023/08/25 00:10:29;;;;;;;39.00;34.75;;;;;;;;;;5034436;28;20049;-78
2023/08/25 00:12:55;;;;;;;39.30;35.30;;;;;;;;;;5017364;28;20056;-78
2023/08/25 00:15:22;;;;;;;37.55;33.75;;;;;;;;;;5035660;28;20092;-79
2023/08/25 00:17:48;;;;;;;38.38;34.35;;;;;;;;;;5035399;28;20133;-78
2023/08/25 00:20:14;;;;;;;39.47;35.17;;;;;;;;;;5035645;28;20087;-78
2023/08/25 00:22:42;;;;;;;41.35;36.95;;;;;;;;;;5017277;28;20049;-78
2023/08/25 00:25:09;;;;;;;40.35;36.17;;;;;;;;;;5035240;28;20053;-78
2023/08/25 00:27:35;;;;;;;42.25;37.75;;;;;;;;;;5034941;28;20049;-77
2023/08/25 00:30:01;;;;;;;43.35;38.15;;;;;;;;;;5035196;28;20049;-78
2023/08/25 00:32:27;;;;;;;42.50;37.85;;;;;;;;;;5035063;28;20128;-78
2023/08/25 00:34:53;;;;;;;42.92;38.22;;;;;;;;;;5001088;28;20045;-78
2023/08/25 00:37:19;;;;;;;41.05;36.70;;;;;;;;;;5000561;28;20121;-78
2023/08/25 00:39:46;;;;;;;43.67;37.75;;;;;;;;;;5035270;28;20045;-78
2023/08/25 00:42:12;;;;;;;43.17;37.83;;;;;;;;;;5034721;28;20084;-78
2023/08/25 00:44:39;;;;;;;43.83;39.20;;;;;;;;;;5033993;28;20411;-79
2023/08/25 00:47:05;;;;;;;43.47;38.97;;;;;;;;;;5033139;28;20448;-79
2023/08/25 00:49:32;;;;;;;43.22;38.65;;;;;;;;;;5033929;28;20130;-79
2023/08/25 00:51:58;;;;;;;42.85;38.40;;;;;;;;;;5035147;28;20072;-79
2023/08/25 00:54:26;;;;;;;43.33;38.70;;;;;;;;;;5017325;28;20045;-80
2023/08/25 00:56:52;;;;;;;44.97;40.15;;;;;;;;;;5017446;28;20069;-79
2023/08/25 00:59:18;;;;;;;44.75;39.90;;;;;;;;;;5016992;28;20064;-79
2023/08/25 01:01:45;;;;;;;43.92;39.22;;;;;;;;;;5034976;28;20441;-79
2023/08/25 01:04:12;;;;;;;44.85;39.83;;;;;;;;;;5016256;28;20528;-79
2023/08/25 01:06:39;;;;;;;43.95;39.38;;;;;;;;;;5017004;28;20080;-79
2023/08/25 01:09:05;;;;;;;43.85;38.78;;;;;;;;;;5016510;28;20045;-79
2023/08/25 01:11:37;;;;;;;42.85;38.17;;;;;;;;;;5033918;28;20045;-78
2023/08/25 01:14:13;;;;;;;46.70;40.28;;;;;;;;;;5032473;28;20449;-79
2023/08/25 01:16:47;;;;;;;44.15;39.38;;;;;;;;;;5034118;28;20081;-79
2023/08/25 01:19:37;;;;;;;47.03;41.33;;;;;;;;;;5033999;28;20099;-79
2023/08/25 01:22:06;;;;;;;42.75;38.10;;;;;;;;;;5003991;28;20073;-78
2023/08/25 01:24:35;;;;;;;43.47;38.88;;;;;;;;;;5016206;28;20396;-78
2023/08/25 01:27:02;;;;;;;45.95;41.05;;;;;;;;;;5012661;28;20096;-78
2023/08/25 01:29:28;;;;;;;44.63;39.88;;;;;;;;;;5013807;28;20049;-78
2023/08/25 01:31:54;;;;;;;47.53;42.13;;;;;;;;;;5018294;28;20037;-78
2023/08/25 01:34:20;;;;;;;44.60;39.53;;;;;;;;;;5033707;28;20133;-77
2023/08/25 01:36:50;;;;;;;45.53;40.22;;;;;;;;;;5025203;28;20108;-78
2023/08/25 01:39:16;;;;;;;45.70;40.80;;;;;;;;;;5013768;28;20494;-78
2023/08/25 01:41:45;;;;;;;44.03;39.33;;;;;;;;;;4996518;28;20054;-78
2023/08/25 01:44:12;;;;;;;47.78;42.28;;;;;;;;;;5013355;28;20520;-78
2023/08/25 01:46:40;;;;;;;43.63;38.90;;;;;;;;;;4980164;28;20057;-78
2023/08/25 01:49:07;;;;;;;45.97;41.10;;;;;;;;;;4996018;28;20049;-79
2023/08/25 01:51:33;;;;;;;45.75;40.38;;;;;;;;;;4996156;28;20085;-77
2023/08/25 01:54:00;;;;;;;47.75;42.55;;;;;;;;;;5012630;28;20061;-78
2023/08/25 01:56:26;;;;;;;46.47;40.08;;;;;;;;;;5012922;28;20042;-78
2023/08/25 01:58:52;;;;;;;48.65;40.92;;;;;;;;;;4995833;28;20386;-79
2023/08/25 02:01:18;;;;;;;49.83;42.40;;;;;;;;;;4979836;28;20133;-79
2023/08/25 02:03:44;;;;;;;45.08;40.08;;;;;;;;;;4995028;28;20062;-78
2023/08/25 02:06:10;;;;;;;48.35;42.20;;;;;;;;;;4994866;28;20060;-78
2023/08/25 02:08:37;;;;;;;54.35;43.38;;;;;;;;;;5013229;28;20125;-78
2023/08/25 02:11:03;;;;;;;55.10;44.92;;;;;;;;;;5012654;28;20443;-78
2023/08/25 02:13:29;;;;;;;55.25;42.22;;;;;;;;;;5012868;28;20050;-78
2023/08/25 02:15:56;;;;;;;53.17;43.38;;;;;;;;;;5013604;28;20049;-78
2023/08/25 02:18:22;;;;;;;46.88;41.80;;;;;;;;;;5013355;28;20084;-78
2023/08/25 02:20:48;;;;;;;51.35;43.67;;;;;;;;;;4996244;28;20374;-78
2023/08/25 02:23:14;;;;;;;52.85;42.67;;;;;;;;;;5013062;28;20180;-78
2023/08/25 02:25:40;;;;;;;53.03;43.35;;;;;;;;;;4995916;28;20054;-78
2023/08/25 02:28:07;;;;;;;51.88;42.95;;;;;;;;;;5029446;28;20099;-78
2023/08/25 02:30:33;;;;;;;53.25;42.75;;;;;;;;;;5014987;28;20071;-78
2023/08/25 02:32:59;;;;;;;53.53;42.63;;;;;;;;;;5014798;28;20252;-78
2023/08/25 02:35:25;;;;;;;56.45;43.28;;;;;;;;;;5015187;28;20098;-77
2023/08/25 02:37:58;;;;;;;52.75;41.58;;;;;;;;;;4998372;28;20037;-78
2023/08/25 02:40:24;;;;;;;50.92;41.17;;;;;;;;;;4999067;28;20422;-79
2023/08/25 02:42:50;;;;;;;48.45;41.83;;;;;;;;;;5014795;28;20055;-78
2023/08/25 02:45:16;;;;;;;50.95;40.80;;;;;;;;;;5014980;28;20526;-78
2023/08/25 02:47:42;;;;;;;54.97;43.30;;;;;;;;;;5028972;28;20125;-78
2023/08/25 02:50:08;;;;;;;53.47;44.50;;;;;;;;;;4998060;28;20132;-77
2023/08/25 02:52:34;;;;;;;53.55;43.47;;;;;;;;;;5014794;28;20096;-78
2023/08/25 02:55:00;;;;;;;56.05;43.55;;;;;;;;;;5014688;28;20547;-79
2023/08/25 02:57:27;;;;;;;51.08;42.50;;;;;;;;;;5014823;28;20045;-78
2023/08/25 02:59:53;;;;;;;56.78;43.28;;;;;;;;;;5032650;28;20103;-78
2023/08/25 03:02:19;;;;;;;53.78;43.50;;;;;;;;;;5032419;28;20460;-78
2023/08/25 03:04:45;;;;;;;51.58;43.50;;;;;;;;;;5000375;28;20089;-78
2023/08/25 03:07:11;;;;;;;53.05;43.33;;;;;;;;;;5012503;28;20046;-78
2023/08/25 03:09:40;;;;;;;52.15;43.45;;;;;;;;;;5012848;28;20100;-79
2023/08/25 03:12:06;;;;;;;55.78;46.38;;;;;;;;;;4994821;28;20046;-78
2023/08/25 03:14:32;;;;;;;51.10;43.55;;;;;;;;;;5012824;28;20046;-77
2023/08/25 03:16:58;;;;;;;52.38;44.65;;;;;;;;;;4993316;28;20137;-76
2023/08/25 03:19:24;;;;;;;55.10;45.78;;;;;;;;;;5022013;28;20091;-78
2023/08/25 03:21:50;;;;;;;56.55;47.65;;;;;;;;;;5023948;28;20050;-76
2023/08/25 03:24:16;;;;;;;54.15;45.40;;;;;;;;;;5017640;28;20038;-78
2023/08/25 03:26:42;;;;;;;53.42;45.40;;;;;;;;;;5017255;28;20049;-78
2023/08/25 03:29:08;;;;;;;52.75;46.15;;;;;;;;;;4998870;28;20049;-77
2023/08/25 03:31:35;;;;;;;54.58;44.38;;;;;;;;;;4999045;28;20038;-78
2023/08/25 03:34:02;;;;;;;51.08;43.17;;;;;;;;;;5016440;28;20107;-78
2023/08/25 03:36:30;;;;;;;55.58;45.53;;;;;;;;;;5016840;28;20042;-79
2023/08/25 03:38:56;;;;;;;55.08;45.25;;;;;;;;;;5015792;28;20116;-78
2023/08/25 03:41:22;;;;;;;61.63;46.58;;;;;;;;;;4998157;28;20079;-78
2023/08/25 03:43:48;;;;;;;58.17;45.13;;;;;;;;;;4998238;28;20096;-78
2023/08/25 03:46:14;;;;;;;52.15;43.20;;;;;;;;;;5016317;28;20046;-79
2023/08/25 03:48:40;;;;;;;53.20;44.80;;;;;;;;;;4998356;28;20068;-79
2023/08/25 03:51:06;;;;;;;48.53;42.00;;;;;;;;;;5016734;28;20072;-78
2023/08/25 03:53:32;;;;;;;51.95;43.53;;;;;;;;;;4982149;28;20092;-78
2023/08/25 03:55:58;;;;;;;57.05;43.60;;;;;;;;;;5016258;28;20073;-78
2023/08/25 03:58:25;;;;;;;59.97;44.72;;;;;;;;;;4998343;28;20087;-78
2023/08/25 04:00:52;;;;;;;59.88;45.97;;;;;;;;;;5016350;28;20159;-78
2023/08/25 04:03:18;;;;;;;55.15;44.47;;;;;;;;;;5018075;28;20120;-77
2023/08/25 04:05:45;;;;;;;55.95;45.72;;;;;;;;;;5018164;28;20045;-77
2023/08/25 04:08:11;;;;;;;53.40;43.95;;;;;;;;;;5035266;28;20046;-77
2023/08/25 04:10:37;;;;;;;55.92;45.55;;;;;;;;;;5035806;28;20371;-78
2023/08/25 04:13:03;;;;;;;58.28;46.20;;;;;;;;;;5017739;28;20545;-78
2023/08/25 04:15:30;;;;;;;55.30;45.20;;;;;;;;;;5035729;28;20136;-78
2023/08/25 04:17:56;;;;;;;59.22;46.70;;;;;;;;;;5035342;28;20045;-79
2023/08/25 04:20:22;;;;;;;57.58;47.58;;;;;;;;;;5035591;28;20092;-78
2023/08/25 04:22:48;;;;;;;66.90;47.80;;;;;;;;;;5035367;28;20417;-79
2023/08/25 04:25:14;;;;;;;60.00;47.67;;;;;;;;;;5034504;28;20084;-79
2023/08/25 04:27:40;;;;;;;58.53;46.20;;;;;;;;;;5021385;28;20458;-79
2023/08/25 04:30:06;;;;;;;60.08;46.33;;;;;;;;;;5015007;28;20049;-78
2023/08/25 04:32:32;;;;;;;52.47;43.90;;;;;;;;;;5015630;28;20405;-79
2023/08/25 04:34:58;;;;;;;60.88;44.95;;;;;;;;;;5015573;28;20041;-78
2023/08/25 04:37:25;;;;;;;55.75;44.92;;;;;;;;;;5015217;28;20041;-79
2023/08/25 04:39:52;;;;;;;58.63;43.67;;;;;;;;;;5015414;28;20237;-79
2023/08/25 04:42:18;;;;;;;59.00;45.47;;;;;;;;;;4997147;28;20050;-79
2023/08/25 04:44:44;;;;;;;58.40;43.40;;;;;;;;;;5015338;28;20045;-79
2023/08/25 04:47:10;;;;;;;53.13;44.53;;;;;;;;;;4997317;28;20058;-78
2023/08/25 04:49:36;;;;;;;68.15;46.50;;;;;;;;;;5015101;28;20045;-78
2023/08/25 04:52:02;;;;;;;68.90;48.42;;;;;;;;;;5015186;28;20038;-79
2023/08/25 04:54:29;;;;;;;61.00;46.08;;;;;;;;;;5014798;28;20050;-78
2023/08/25 04:56:55;;;;;;;59.67;45.22;;;;;;;;;;5014072;28;20092;-78
2023/08/25 04:59:21;;;;;;;59.08;45.72;;;;;;;;;;4997123;28;20053;-78
2023/08/25 05:01:47;;;;;;;60.65;45.20;;;;;;;;;;5014787;28;20060;-78
2023/08/25 05:04:13;;;;;;;59.20;44.75;;;;;;;;;;5003161;28;20120;-79
2023/08/25 05:06:39;;;;;;;56.95;44.30;;;;;;;;;;4977348;28;20058;-79
2023/08/25 05:09:05;;;;;;;64.97;46.10;;;;;;;;;;4977458;28;20043;-78
2023/08/25 05:11:33;;;;;;;56.47;44.42;;;;;;;;;;4977828;28;20065;-77
2023/08/25 05:14:00;;;;;;;60.25;44.33;;;;;;;;;;4961137;28;20580;-78
2023/08/25 05:16:26;;;;;;;63.95;46.33;;;;;;;;;;4958899;28;20130;-78
2023/08/25 05:18:52;;;;;;;57.53;44.05;;;;;;;;;;4994556;28;20046;-78
2023/08/25 05:21:21;;;;;;;61.13;45.22;;;;;;;;;;4994847;28;20468;-78
2023/08/25 05:23:48;;;;;;;54.55;44.45;;;;;;;;;;4976849;28;20129;-77
2023/08/25 05:26:14;;;;;;;58.90;45.50;;;;;;;;;;4994286;28;20038;-77
2023/08/25 05:28:40;;;;;;;57.75;45.58;;;;;;;;;;4994003;28;20050;-78
2023/08/25 05:31:08;;;;;;;63.30;46.67;;;;;;;;;;4994358;28;20086;-78
2023/08/25 05:33:35;;;;;;;58.95;45.70;;;;;;;;;;5010828;28;20073;-78
2023/08/25 05:36:02;;;;;;;63.90;46.03;;;;;;;;;;5013931;28;20064;-77
2023/08/25 05:38:28;;;;;;;60.05;46.05;;;;;;;;;;5013642;28;20096;-79
2023/08/25 05:40:55;;;;;;;65.60;46.88;;;;;;;;;;4994636;28;20046;-78
2023/08/25 05:43:22;;;;;;;61.17;45.63;;;;;;;;;;4995343;28;20057;-78
2023/08/25 05:45:48;;;;;;;58.72;45.08;;;;;;;;;;5013577;28;20038;-78
2023/08/25 05:48:14;;;;;;;57.75;43.38;;;;;;;;;;5013114;28;20049;-78
2023/08/25 05:50:40;;;;;;;59.65;44.40;;;;;;;;;;5012841;28;20050;-79
2023/08/25 05:53:06;;;;;;;59.65;45.63;;;;;;;;;;4995510;28;20046;-79
2023/08/25 05:55:32;;;;;;;59.60;44.47;;;;;;;;;;5013527;28;20050;-78
2023/08/25 05:57:58;;;;;;;62.30;45.05;;;;;;;;;;4995826;28;20054;-78
2023/08/25 06:00:24;;;;;;;60.53;45.08;;;;;;;;;;4995899;28;20129;-79
2023/08/25 06:02:50;;;;;;;62.05;46.88;;;;;;;;;;5013218;28;20049;-79
2023/08/25 06:05:16;;;;;;;63.85;46.38;;;;;;;;;;4995586;28;20089;-79
2023/08/25 06:07:42;;;;;;;69.30;49.17;;;;;;;;;;4979090;28;20046;-78
2023/08/25 06:10:09;;;;;;;67.03;47.10;;;;;;;;;;4995012;28;20050;-79
2023/08/25 06:12:35;;;;;;;62.50;46.78;;;;;;;;;;4992788;28;20398;-78
2023/08/25 06:15:01;;;;;;;72.28;48.47;;;;;;;;;;4995683;28;20046;-77
2023/08/25 06:17:27;;;;;;;77.55;51.88;;;;;;;;;;5013246;28;20050;-78
2023/08/25 06:19:56;;;;;;;66.97;47.10;;;;;;;;;;5013182;28;20041;-78
2023/08/25 06:22:25;;;;;;;65.13;48.47;;;;;;;;;;4995255;28;20053;-78
2023/08/25 06:24:51;;;;;;;75.13;48.92;;;;;;;;;;5013288;28;20450;-78
2023/08/25 06:27:18;;;;;;;70.60;48.78;;;;;;;;;;5002987;28;20385;-78
2023/08/25 06:29:45;;;;;;;80.13;50.78;;;;;;;;;;4976097;28;20046;-78
2023/08/25 06:32:14;;;;;;;75.63;49.50;;;;;;;;;;4993025;28;20574;-78
2023/08/25 06:34:40;;;;;;;81.88;50.63;;;;;;;;;;4993613;28;20053;-78
2023/08/25 06:37:06;;;;;;;80.63;51.30;;;;;;;;;;4975721;28;20086;-78
2023/08/25 06:39:32;;;;;;;77.63;50.60;;;;;;;;;;4975802;28;20042;-78
2023/08/25 06:41:58;;;;;;;72.35;48.65;;;;;;;;;;4975606;28;20125;-77
2023/08/25 06:44:24;;;;;;;69.78;48.78;;;;;;;;;;4992808;28;20487;-78
2023/08/25 06:46:50;;;;;;;70.10;48.55;;;;;;;;;;4992061;28;20113;-79
2023/08/25 06:49:16;;;;;;;78.68;48.97;;;;;;;;;;4993189;28;20052;-79
2023/08/25 06:51:42;;;;;;;73.03;48.28;;;;;;;;;;4993238;28;20080;-78
2023/08/25 06:54:10;;;;;;;71.55;48.53;;;;;;;;;;4975341;28;20447;-79
2023/08/25 06:56:36;;;;;;;76.72;49.30;;;;;;;;;;4993255;28;20042;-79
2023/08/25 06:59:02;;;;;;;73.65;48.63;;;;;;;;;;4975632;28;20092;-79
2023/08/25 07:01:29;;;;;;;74.85;48.15;;;;;;;;;;4977408;28;20069;-78
2023/08/25 07:03:55;;;;;;;82.22;50.17;;;;;;;;;;5001977;28;20057;-78
2023/08/25 07:06:21;;;;;;;69.72;46.10;;;;;;;;;;4995127;28;20054;-79
2023/08/25 07:08:47;;;;;;;70.13;45.60;;;;;;;;;;5015655;28;20056;-75
2023/08/25 07:11:13;;;;;;;69.75;46.10;;;;;;;;;;5018295;28;20046;-78
2023/08/25 07:13:39;;;;;;;65.22;42.08;;;;;;;;;;4998280;28;20092;-78
2023/08/25 07:16:05;;;;;;;58.05;41.88;;;;;;;;;;5012913;28;20046;-77
2023/08/25 07:18:31;;;;;;;60.28;41.78;;;;;;;;;;5012733;28;20038;-78
2023/08/25 07:21:02;;;;;;;60.72;41.35;;;;;;;;;;5012989;28;20422;-78
2023/08/25 07:23:28;;;;;;;53.35;37.67;;;;;;;;;;4994688;28;20042;-79
2023/08/25 07:25:54;;;;;;;50.80;36.25;;;;;;;;;;4979321;28;20119;-78
2023/08/25 07:28:20;;;;;;;49.28;37.28;;;;;;;;;;5012539;28;20416;-79
2023/08/25 07:30:47;;;;;;;57.53;38.10;;;;;;;;;;5013480;28;20046;-79
2023/08/25 07:33:13;;;;;;;52.38;37.13;;;;;;;;;;4994944;28;20046;-79
2023/08/25 07:35:41;;;;;;;49.35;36.03;;;;;;;;;;4995351;28;20050;-78
2023/08/25 07:38:08;;;;;;;54.83;36.95;;;;;;;;;;4994468;28;20042;-79
2023/08/25 07:40:35;;;;;;;51.13;36.38;;;;;;;;;;5010232;28;20057;-79
2023/08/25 07:43:01;;;;;;;50.15;35.63;;;;;;;;;;5011872;28;20038;-78
2023/08/25 07:45:28;;;;;;;47.67;34.95;;;;;;;;;;4994657;28;20058;-79
2023/08/25 07:48:01;;;;;;;51.38;34.85;;;;;;;;;;5010191;28;20070;-79
2023/08/25 07:50:30;;;;;;;51.85;35.80;;;;;;;;;;5011094;28;20049;-79
2023/08/25 07:52:57;;;;;;;50.13;34.78;;;;;;;;;;5012103;28;20041;-79
2023/08/25 07:55:23;;;;;;;50.55;33.78;;;;;;;;;;5012154;28;20507;-78
2023/08/25 07:57:49;;;;;;;49.60;34.58;;;;;;;;;;5012448;28;20078;-78
2023/08/25 08:00:16;;;;;;;48.22;33.08;;;;;;;;;;5012347;28;20084;-79
2023/08/25 08:02:44;;;;;;;48.67;33.80;;;;;;;;;;5010736;28;20046;-79
2023/08/25 08:05:10;;;;;;;49.15;34.15;;;;;;;;;;5013741;28;20061;-79
2023/08/25 08:07:36;;;;;;;51.35;33.65;;;;;;;;;;4997641;28;20614;-78
2023/08/25 08:10:03;;;;;;;44.75;33.17;;;;;;;;;;4998201;28;20049;-79
2023/08/25 08:12:30;;;;;;;48.17;33.35;;;;;;;;;;5015382;28;20046;-79
2023/08/25 08:14:56;;;;;;;48.38;32.95;;;;;;;;;;4981787;28;20092;-79
2023/08/25 08:17:22;;;;;;;46.78;32.88;;;;;;;;;;5015209;28;20049;-79
2023/08/25 08:19:50;;;;;;;46.15;30.20;;;;;;;;;;4998138;28;20053;-79
2023/08/25 08:22:17;;;;;;;43.80;31.10;;;;;;;;;;5014901;28;20502;-79
2023/08/25 08:24:49;;;;;;;45.60;33.38;;;;;;;;;;5015281;28;20053;-79
2023/08/25 08:27:16;;;;;;;42.25;31.05;;;;;;;;;;5003689;28;20045;-79
2023/08/25 08:29:43;;;;;;;41.70;30.77;;;;;;;;;;5015672;28;20336;-79
2023/08/25 08:32:09;;;;;;;43.30;31.75;;;;;;;;;;5014935;28;20176;-79
2023/08/25 08:34:36;;;;;;;43.10;31.40;;;;;;;;;;5015256;28;20499;-79
2023/08/25 08:37:05;;;;;;;40.58;30.65;;;;;;;;;;4997453;28;20054;-78
2023/08/25 08:39:32;;;;;;;37.58;28.67;;;;;;;;;;5015142;28;20070;-79
2023/08/25 08:41:58;;;;;;;32.35;24.23;;;;;;;;;;4997163;28;20042;-79
2023/08/25 08:44:25;;;;;;;28.63;21.45;;;;;;;;;;4980909;28;20050;-79
2023/08/25 08:46:53;;;;;;;27.75;20.35;;;;;;;;;;5014708;28;20125;-78
2023/08/25 08:49:22;;;;;;;25.48;18.95;;;;;;;;;;4997037;28;20049;-79
2023/08/25 08:51:49;;;;;;;27.15;19.02;;;;;;;;;;5015057;28;20432;-79
2023/08/25 08:54:15;;;;;;;23.75;17.85;;;;;;;;;;5014777;28;20129;-80
2023/08/25 08:56:41;;;;;;;24.95;18.38;;;;;;;;;;5014848;28;20056;-79
2023/08/25 08:59:07;;;;;;;27.70;18.83;;;;;;;;;;5012503;28;20080;-79
2023/08/25 09:01:33;;;;;;;27.45;18.55;;;;;;;;;;5014677;28;20108;-79
2023/08/25 09:04:02;;;;;;;25.13;19.20;;;;;;;;;;5014284;28;20045;-79
2023/08/25 09:06:35;;;;;;;30.52;18.40;;;;;;;;;;5014452;28;20107;-79
2023/08/25 09:09:04;;;;;;;26.48;18.85;;;;;;;;;;4980690;28;20046;-78
2023/08/25 09:11:30;;;;;;;27.38;19.17;;;;;;;;;;4997216;28;20062;-77
2023/08/25 09:13:58;;;;;;;26.88;19.58;;;;;;;;;;4996588;28;20120;-78
2023/08/25 09:16:25;;;;;;;30.23;20.83;;;;;;;;;;5013318;28;20049;-78
2023/08/25 09:18:52;;;;;;;32.33;20.75;;;;;;;;;;4995586;28;20050;-78
2023/08/25 09:21:21;;;;;;;27.27;20.30;;;;;;;;;;5013034;28;20044;-79
2023/08/25 09:23:59;;;;;;;28.15;20.65;;;;;;;;;;4996153;28;20054;-79
2023/08/25 09:26:28;;;;;;;29.45;21.95;;;;;;;;;;4997803;28;20048;-79
2023/08/25 09:28:54;;;;;;;33.08;21.10;;;;;;;;;;5015928;28;20052;-79
2023/08/25 09:31:21;;;;;;;28.85;20.60;;;;;;;;;;5033083;28;20060;-79
2023/08/25 09:33:48;;;;;;;30.75;21.95;;;;;;;;;;5012624;28;20076;-79
2023/08/25 09:36:14;;;;;;;30.15;20.83;;;;;;;;;;5031838;28;20044;-78
2023/08/25 09:38:44;;;;;;;26.67;20.33;;;;;;;;;;5013884;28;20060;-78
2023/08/25 09:41:22;;;;;;;30.50;22.23;;;;;;;;;;5033881;28;20430;-78
2023/08/25 09:43:48;;;;;;;28.80;21.48;;;;;;;;;;4999377;28;20089;-78
2023/08/25 09:46:14;;;;;;;28.35;21.88;;;;;;;;;;5033325;28;20041;-78
2023/08/25 09:48:41;;;;;;;29.70;21.40;;;;;;;;;;5033197;28;20107;-79
2023/08/25 09:51:07;;;;;;;33.28;22.13;;;;;;;;;;5016348;28;20068;-79
2023/08/25 09:53:34;;;;;;;30.23;22.63;;;;;;;;;;4982464;28;20136;-79
2023/08/25 09:56:02;;;;;;;29.67;20.55;;;;;;;;;;5033290;28;20095;-79
2023/08/25 09:58:29;;;;;;;31.95;21.25;;;;;;;;;;5033150;28;20041;-79
2023/08/25 10:00:55;;;;;;;29.48;21.67;;;;;;;;;;5015808;28;20080;-79
2023/08/25 10:03:21;;;;;;;31.17;21.92;;;;;;;;;;5032787;28;20100;-80
2023/08/25 10:05:47;;;;;;;32.97;22.67;;;;;;;;;;5015517;28;20054;-79
2023/08/25 10:08:14;;;;;;;33.22;21.88;;;;;;;;;;5015055;28;20180;-80
2023/08/25 10:10:41;;;;;;;25.70;20.38;;;;;;;;;;5015489;28;20041;-79
2023/08/25 10:13:08;;;;;;;31.00;21.33;;;;;;;;;;5014904;28;20102;-79
2023/08/25 10:15:35;;;;;;;35.22;24.20;;;;;;;;;;5033436;28;20501;-79
2023/08/25 10:18:03;;;;;;;33.80;24.33;;;;;;;;;;5032634;28;20045;-78
2023/08/25 10:20:32;;;;;;;31.63;22.45;;;;;;;;;;5033049;28;20049;-79
2023/08/25 10:22:58;;;;;;;32.60;23.88;;;;;;;;;;5014814;28;20141;-80
2023/08/25 10:25:28;;;;;;;36.33;24.13;;;;;;;;;;5033359;28;20080;-78
2023/08/25 10:27:55;;;;;;;32.10;22.83;;;;;;;;;;5017290;28;20096;-79
2023/08/25 10:30:21;;;;;;;34.22;23.88;;;;;;;;;;5012248;28;20049;-78
2023/08/25 10:32:49;;;;;;;37.88;25.63;;;;;;;;;;5012757;28;20070;-78
2023/08/25 10:35:16;;;;;;;30.83;23.48;;;;;;;;;;5013179;28;20107;-79
2023/08/25 10:37:42;;;;;;;32.85;23.60;;;;;;;;;;5014698;28;20091;-79
2023/08/25 10:40:10;;;;;;;31.33;24.75;;;;;;;;;;5032672;28;20056;-79
2023/08/25 10:42:36;;;;;;;35.42;24.80;;;;;;;;;;5013235;28;20056;-79
2023/08/25 10:45:04;;;;;;;34.78;25.05;;;;;;;;;;5032856;28;20085;-79
2023/08/25 10:47:30;;;;;;;35.10;24.90;;;;;;;;;;5032858;28;20421;-79
2023/08/25 10:49:59;;;;;;;31.73;25.25;;;;;;;;;;5015248;28;20057;-79
2023/08/25 10:52:25;;;;;;;32.95;24.75;;;;;;;;;;5015023;28;20449;-79
2023/08/25 10:54:52;;;;;;;33.50;25.35;;;;;;;;;;5032467;28;20045;-79
2023/08/25 10:57:43;;;;;;;33.83;25.02;;;;;;;;;;5014885;28;20045;-79
2023/08/25 11:00:29;;;;;;;34.53;27.35;;;;;;;;;;5038949;28;20520;-77
2023/08/25 11:02:55;;;;;;;36.92;26.00;;;;;;;;;;5021365;28;20170;-77
2023/08/25 11:05:31;;;;;;;36.63;26.73;;;;;;;;;;5012565;28;20072;-77
2023/08/25 11:08:17;;;;;;;35.67;25.70;;;;;;;;;;5031344;28;20057;-78
2023/08/25 11:10:43;;;;;;;32.80;24.30;;;;;;;;;;5031419;28;20053;-79
2023/08/25 11:13:12;;;;;;;33.20;25.67;;;;;;;;;;5031999;28;20068;-79
2023/08/25 11:15:39;;;;;;;33.38;26.13;;;;;;;;;;5032265;28;20045;-79
2023/08/25 11:18:05;;;;;;;34.22;25.52;;;;;;;;;;5014768;28;20050;-78
2023/08/25 11:20:31;;;;;;;35.33;27.55;;;;;;;;;;5031555;28;20042;-79
2023/08/25 11:22:58;;;;;;;35.90;27.40;;;;;;;;;;5013346;28;20049;-77
2023/08/25 11:25:28;;;;;;;36.40;27.67;;;;;;;;;;5032423;28;20033;-80
2023/08/25 11:27:54;;;;;;;39.00;29.42;;;;;;;;;;5031675;28;20050;-79
2023/08/25 11:30:21;;;;;;;37.13;28.58;;;;;;;;;;5032579;28;20049;-79
2023/08/25 11:32:48;;;;;;;38.92;29.13;;;;;;;;;;5013827;28;20096;-77
2023/08/25 11:35:15;;;;;;;36.60;28.02;;;;;;;;;;5011776;28;20049;-78
2023/08/25 11:37:42;;;;;;;36.10;27.88;;;;;;;;;;5012090;28;20049;-79
2023/08/25 11:40:12;;;;;;;39.85;28.88;;;;;;;;;;5016084;28;20060;-79
2023/08/25 11:42:40;;;;;;;34.78;29.48;;;;;;;;;;5034453;28;20115;-79
2023/08/25 11:45:09;;;;;;;38.03;29.05;;;;;;;;;;5035762;28;20049;-79
2023/08/25 11:47:41;;;;;;;39.05;28.92;;;;;;;;;;5035947;28;20045;-79
2023/08/25 11:50:07;;;;;;;37.92;29.02;;;;;;;;;;5035784;28;20056;-79
2023/08/25 11:52:36;;;;;;;37.47;30.38;;;;;;;;;;5035685;28;20041;-79
2023/08/25 11:55:02;;;;;;;35.13;28.77;;;;;;;;;;5035864;28;20437;-79
2023/08/25 11:57:35;;;;;;;36.70;29.90;;;;;;;;;;5035304;28;20045;-79
2023/08/25 12:00:05;;;;;;;35.45;27.45;;;;;;;;;;5017864;28;20081;-79
2023/08/25 12:02:32;;;;;;;29.52;23.73;;;;;;;;;;5033998;28;20057;-78
2023/08/25 12:05:00;;;;;;;31.67;23.92;;;;;;;;;;5017082;28;20107;-78
2023/08/25 12:07:29;;;;;;;29.75;23.45;;;;;;;;;;5035224;28;20050;-78
2023/08/25 12:09:56;;;;;;;27.90;22.60;;;;;;;;;;5035360;28;20445;-78
2023/08/25 12:12:23;;;;;;;31.10;24.38;;;;;;;;;;5034979;28;20065;-79
2023/08/25 12:14:52;;;;;;;29.85;26.17;;;;;;;;;;5001446;28;20091;-80
2023/08/25 12:17:26;;;;;;;33.67;26.52;;;;;;;;;;5034989;28;20049;-79
2023/08/25 12:19:52;;;;;;;31.40;25.33;;;;;;;;;;5017741;28;20048;-78
2023/08/25 12:22:18;;;;;;;33.80;26.05;;;;;;;;;;5034602;28;20151;-79
2023/08/25 12:24:45;;;;;;;35.42;27.75;;;;;;;;;;5017258;28;20042;-79
2023/08/25 12:27:13;;;;;;;29.42;25.33;;;;;;;;;;5013188;28;20042;-79
2023/08/25 12:29:39;;;;;;;31.70;26.02;;;;;;;;;;5012839;28;20060;-78
2023/08/25 12:32:09;;;;;;;32.15;25.40;;;;;;;;;;5014821;28;20069;-78
2023/08/25 12:34:35;;;;;;;33.25;25.52;;;;;;;;;;5015291;28;20074;-77
2023/08/25 12:37:03;;;;;;;31.58;24.52;;;;;;;;;;5015230;28;20095;-78
2023/08/25 12:39:29;;;;;;;28.38;24.95;;;;;;;;;;5014985;28;20104;-79
2023/08/25 12:41:55;;;;;;;28.42;25.00;;;;;;;;;;5014044;28;20050;-78
2023/08/25 12:44:22;;;;;;;29.20;25.38;;;;;;;;;;4980998;28;20045;-78
2023/08/25 12:46:48;;;;;;;32.03;25.65;;;;;;;;;;5015126;28;20167;-78
2023/08/25 12:49:15;;;;;;;32.40;23.98;;;;;;;;;;4997075;28;20046;-79
2023/08/25 12:51:41;;;;;;;28.63;23.67;;;;;;;;;;5014890;28;20622;-78
2023/08/25 12:54:12;;;;;;;27.42;21.05;;;;;;;;;;4997067;28;20130;-79
2023/08/25 12:56:38;;;;;;;25.17;19.90;;;;;;;;;;4997494;28;20042;-80
2023/08/25 12:59:05;;;;;;;24.05;19.33;;;;;;;;;;4997374;28;20100;-79
2023/08/25 13:01:31;;;;;;;25.63;19.25;;;;;;;;;;5015129;28;20046;-79
2023/08/25 13:03:57;;;;;;;25.00;18.90;;;;;;;;;;4979773;28;20080;-78
2023/08/25 13:06:23;;;;;;;23.33;16.83;;;;;;;;;;5014138;28;20372;-80
2023/08/25 13:08:49;;;;;;;25.33;17.50;;;;;;;;;;4996671;28;20054;-79
2023/08/25 13:11:15;;;;;;;21.85;17.13;;;;;;;;;;5015120;28;20038;-78
2023/08/25 13:13:42;;;;;;;24.70;17.58;;;;;;;;;;4996615;28;20057;-78
2023/08/25 13:16:10;;;;;;;24.85;16.98;;;;;;;;;;4996297;28;20046;-79
2023/08/25 13:18:36;;;;;;;24.58;17.55;;;;;;;;;;4993257;28;20053;-78
2023/08/25 13:21:03;;;;;;;23.67;17.05;;;;;;;;;;5012129;28;20046;-79
2023/08/25 13:23:29;;;;;;;23.40;17.65;;;;;;;;;;5011975;28;20042;-79
2023/08/25 13:25:55;;;;;;;23.30;17.17;;;;;;;;;;4996889;28;20403;-78
2023/08/25 13:28:21;;;;;;;22.88;17.25;;;;;;;;;;5011262;28;20045;-79
2023/08/25 13:30:49;;;;;;;27.33;18.15;;;;;;;;;;4996054;28;20556;-79
2023/08/25 13:33:15;;;;;;;27.98;17.77;;;;;;;;;;4995315;28;20046;-79
2023/08/25 13:35:41;;;;;;;26.10;18.13;;;;;;;;;;4996326;28;20057;-80
2023/08/25 13:38:09;;;;;;;26.38;17.98;;;;;;;;;;5013548;28;20042;-80
2023/08/25 13:40:35;;;;;;;25.00;17.95;;;;;;;;;;5014237;28;20054;-79
2023/08/25 13:43:02;;;;;;;23.88;18.83;;;;;;;;;;4995857;28;20048;-79
2023/08/25 13:45:28;;;;;;;27.73;18.77;;;;;;;;;;4996294;28;20054;-79
2023/08/25 13:47:54;;;;;;;30.23;19.38;;;;;;;;;;5013681;28;20052;-79
2023/08/25 13:50:21;;;;;;;25.30;19.95;;;;;;;;;;4996145;28;20068;-78
2023/08/25 13:52:47;;;;;;;25.95;19.52;;;;;;;;;;5013413;28;20049;-79
2023/08/25 13:55:13;;;;;;;29.52;19.20;;;;;;;;;;4996088;28;20042;-78
2023/08/25 13:57:40;;;;;;;28.33;18.98;;;;;;;;;;4996023;28;20063;-79
2023/08/25 14:00:06;;;;;;;26.63;19.00;;;;;;;;;;4995876;28;20121;-78
2023/08/25 14:02:32;;;;;;;31.00;19.60;;;;;;;;;;4995168;28;20081;-78
2023/08/25 14:04:59;;;;;;;28.10;19.15;;;;;;;;;;5013293;28;20065;-79
2023/08/25 14:07:25;;;;;;;26.63;19.40;;;;;;;;;;5011950;28;20054;-79
2023/08/25 14:09:51;;;;;;;27.00;19.02;;;;;;;;;;5013412;28;20438;-79
2023/08/25 14:12:18;;;;;;;27.85;19.08;;;;;;;;;;5013456;28;20324;-79
2023/08/25 14:14:44;;;;;;;28.65;20.30;;;;;;;;;;4995564;28;20046;-79